sensor_id;sensor_type;location;lat;lon;timestamp;pressure;altitude;pressure_sealevel;temperature;humidity
5703;BME280;2876;51.738;10.050;2023-01-26T00:05:08;100034.53;;;-0.81;96.42
5703;BME280;2876;51.738;10.050;2023-01-26T00:11:16;100024.63;;;-0.77;96.15
5703;BME280;2876;51.738;10.050;2023-01-26T00:17:19;100020.63;;;-0.83;96.32
5703;BME280;2876;51.738;10.050;2023-01-26T00:23:29;100010.94;;;-0.82;96.17
5703;BME280;2876;51.738;10.050;2023-01-26T00:29:32;100004.13;;;-0.85;95.03
5703;BME280;2876;51.738;10.050;2023-01-26T00:35:34;99996.38;;;-0.99;96.44
5703;BME280;2876;51.738;10.050;2023-01-26T00:41:36;99985.91;;;-0.88;95.48
5703;BME280;2876;51.738;10.050;2023-01-26T00:47:56;99981.97;;;-0.82;95.43
5703;BME280;2876;51.738;10.050;2023-01-26T00:53:58;99972.41;;;-1.20;96.17
5703;BME280;2876;51.738;10.050;2023-01-26T01:00:00;99969.88;;;-1.21;96.88
5703;BME280;2876;51.738;10.050;2023-01-26T01:06:03;99968.09;;;-1.21;96.84
5703;BME280;2876;51.738;10.050;2023-01-26T01:12:05;99955.22;;;-1.49;96.95
5703;BME280;2876;51.738;10.050;2023-01-26T01:18:07;99963.94;;;-1.36;97.40
5703;BME280;2876;51.738;10.050;2023-01-26T01:24:12;99966.88;;;-1.41;97.76
5703;BME280;2876;51.738;10.050;2023-01-26T01:30:14;99956.66;;;-1.45;97.94
5703;BME280;2876;51.738;10.050;2023-01-26T01:36:16;99968.44;;;-1.51;97.34
5703;BME280;2876;51.738;10.050;2023-01-26T01:42:19;99974.25;;;-1.59;97.21
5703;BME280;2876;51.738;10.050;2023-01-26T01:54:58;99961.53;;;-1.65;95.67
5703;BME280;2876;51.738;10.050;2023-01-26T02:01:02;99953.63;;;-1.65;96.62
5703;BME280;2876;51.738;10.050;2023-01-26T02:07:04;99938.38;;;-1.60;96.26
5703;BME280;2876;51.738;10.050;2023-01-26T02:13:06;99934.00;;;-1.85;96.00
5703;BME280;2876;51.738;10.050;2023-01-26T02:19:20;99934.50;;;-1.80;96.20
5703;BME280;2876;51.738;10.050;2023-01-26T02:31:57;99931.13;;;-1.69;94.92
5703;BME280;2876;51.738;10.050;2023-01-26T02:37:59;99925.34;;;-1.74;95.98
5703;BME280;2876;51.738;10.050;2023-01-26T02:44:04;99915.66;;;-1.61;95.45
5703;BME280;2876;51.738;10.050;2023-01-26T02:50:09;99919.63;;;-1.55;95.22
5703;BME280;2876;51.738;10.050;2023-01-26T02:56:11;99909.69;;;-1.63;94.88
5703;BME280;2876;51.738;10.050;2023-01-26T03:02:13;99910.53;;;-1.62;94.25
5703;BME280;2876;51.738;10.050;2023-01-26T03:08:16;99911.69;;;-1.66;95.32
5703;BME280;2876;51.738;10.050;2023-01-26T03:14:18;99914.00;;;-1.87;96.45
5703;BME280;2876;51.738;10.050;2023-01-26T03:20:20;99898.03;;;-1.84;95.89
5703;BME280;2876;51.738;10.050;2023-01-26T03:26:40;99894.44;;;-1.83;97.17
5703;BME280;2876;51.738;10.050;2023-01-26T03:33:00;99880.34;;;-1.69;96.59
5703;BME280;2876;51.738;10.050;2023-01-26T03:39:04;99891.84;;;-1.46;95.39
5703;BME280;2876;51.738;10.050;2023-01-26T03:45:06;99885.59;;;-1.69;95.50
5703;BME280;2876;51.738;10.050;2023-01-26T03:51:27;99878.78;;;-1.72;95.21
5703;BME280;2876;51.738;10.050;2023-01-26T03:57:48;99889.19;;;-1.83;94.69
5703;BME280;2876;51.738;10.050;2023-01-26T04:03:51;99884.25;;;-1.75;94.83
5703;BME280;2876;51.738;10.050;2023-01-26T04:10:11;99884.78;;;-1.83;95.45
5703;BME280;2876;51.738;10.050;2023-01-26T04:16:14;99888.66;;;-1.63;94.50
5703;BME280;2876;51.738;10.050;2023-01-26T04:22:39;99879.41;;;-1.81;94.84
5703;BME280;2876;51.738;10.050;2023-01-26T04:28:45;99882.75;;;-1.66;95.07
5703;BME280;2876;51.738;10.050;2023-01-26T04:34:47;99872.78;;;-1.37;95.15
5703;BME280;2876;51.738;10.050;2023-01-26T04:40:53;99868.81;;;-1.43;94.35
5703;BME280;2876;51.738;10.050;2023-01-26T04:46:55;99848.56;;;-1.30;95.02
5703;BME280;2876;51.738;10.050;2023-01-26T04:52:57;99843.88;;;-1.50;94.08
5703;BME280;2876;51.738;10.050;2023-01-26T04:59:02;99832.97;;;-1.57;95.79
5703;BME280;2876;51.738;10.050;2023-01-26T05:05:05;99836.91;;;-1.38;94.67
5703;BME280;2876;51.738;10.050;2023-01-26T05:11:07;99840.22;;;-1.47;94.91
5703;BME280;2876;51.738;10.050;2023-01-26T05:17:09;99840.38;;;-1.38;95.28
5703;BME280;2876;51.738;10.050;2023-01-26T05:23:11;99837.66;;;-1.36;95.37
5703;BME280;2876;51.738;10.050;2023-01-26T05:29:13;99836.25;;;-1.29;94.79
5703;BME280;2876;51.738;10.050;2023-01-26T05:35:15;99837.72;;;-1.25;94.81
5703;BME280;2876;51.738;10.050;2023-01-26T05:41:17;99834.19;;;-1.13;95.09
5703;BME280;2876;51.738;10.050;2023-01-26T05:47:19;99837.19;;;-1.06;94.59
5703;BME280;2876;51.738;10.050;2023-01-26T05:53:21;99841.50;;;-1.05;94.30
5703;BME280;2876;51.738;10.050;2023-01-26T05:59:23;99848.72;;;-0.96;94.53
5703;BME280;2876;51.738;10.050;2023-01-26T06:05:25;99847.16;;;-0.98;94.08
5703;BME280;2876;51.738;10.050;2023-01-26T06:11:27;99850.09;;;-0.90;93.48
5703;BME280;2876;51.738;10.050;2023-01-26T06:17:29;99851.34;;;-0.96;93.27
5703;BME280;2876;51.738;10.050;2023-01-26T06:23:31;99851.53;;;-0.86;92.58
5703;BME280;2876;51.738;10.050;2023-01-26T06:29:33;99862.13;;;-0.99;92.64
5703;BME280;2876;51.738;10.050;2023-01-26T06:35:35;99866.94;;;-0.93;92.48
5703;BME280;2876;51.738;10.050;2023-01-26T06:41:38;99875.97;;;-1.08;93.22
5703;BME280;2876;51.738;10.050;2023-01-26T06:47:48;99886.53;;;-0.97;93.14
5703;BME280;2876;51.738;10.050;2023-01-26T06:53:57;99877.66;;;-0.96;93.30
5703;BME280;2876;51.738;10.050;2023-01-26T06:59:59;99874.16;;;-1.08;94.41
5703;BME280;2876;51.738;10.050;2023-01-26T07:06:01;99877.00;;;-1.11;94.86
5703;BME280;2876;51.738;10.050;2023-01-26T07:12:03;99873.81;;;-1.03;95.26
5703;BME280;2876;51.738;10.050;2023-01-26T07:18:05;99878.75;;;-0.98;95.42
5703;BME280;2876;51.738;10.050;2023-01-26T07:24:08;99879.47;;;-0.96;95.48
5703;BME280;2876;51.738;10.050;2023-01-26T07:30:12;99871.41;;;-1.06;96.44
5703;BME280;2876;51.738;10.050;2023-01-26T07:36:16;99881.94;;;-1.06;96.88
5703;BME280;2876;51.738;10.050;2023-01-26T07:42:18;99882.22;;;-0.98;96.84
5703;BME280;2876;51.738;10.050;2023-01-26T07:48:22;99892.41;;;-0.93;97.56
5703;BME280;2876;51.738;10.050;2023-01-26T07:54:25;99890.38;;;-0.66;97.11
5703;BME280;2876;51.738;10.050;2023-01-26T08:00:27;99888.25;;;-0.61;97.17
5703;BME280;2876;51.738;10.050;2023-01-26T08:06:28;99896.41;;;-0.53;97.75
5703;BME280;2876;51.738;10.050;2023-01-26T08:12:30;99888.16;;;-0.48;97.35
5703;BME280;2876;51.738;10.050;2023-01-26T08:18:41;99889.28;;;-0.39;97.27
5703;BME280;2876;51.738;10.050;2023-01-26T08:24:43;99896.34;;;-0.40;97.43
5703;BME280;2876;51.738;10.050;2023-01-26T08:30:45;99893.22;;;-0.34;97.55
5703;BME280;2876;51.738;10.050;2023-01-26T08:36:48;99890.41;;;-0.08;96.95
5703;BME280;2876;51.738;10.050;2023-01-26T08:42:51;99886.72;;;0.06;97.12
5703;BME280;2876;51.738;10.050;2023-01-26T08:48:53;99886.81;;;0.27;96.43
5703;BME280;2876;51.738;10.050;2023-01-26T08:54:55;99878.81;;;0.28;96.51
5703;BME280;2876;51.738;10.050;2023-01-26T09:00:57;99879.63;;;0.40;96.40
5703;BME280;2876;51.738;10.050;2023-01-26T09:06:59;99886.22;;;0.57;96.02
5703;BME280;2876;51.738;10.050;2023-01-26T09:13:01;99887.16;;;0.67;95.36
5703;BME280;2876;51.738;10.050;2023-01-26T09:19:03;99890.16;;;0.62;95.02
5703;BME280;2876;51.738;10.050;2023-01-26T09:25:06;99885.13;;;0.70;95.14
5703;BME280;2876;51.738;10.050;2023-01-26T09:31:10;99887.25;;;0.88;95.07
5703;BME280;2876;51.738;10.050;2023-01-26T09:37:13;99889.53;;;0.81;94.29
5703;BME280;2876;51.738;10.050;2023-01-26T09:43:44;99886.97;;;0.91;94.70
5703;BME280;2876;51.738;10.050;2023-01-26T09:50:22;99898.53;;;0.79;92.67
5703;BME280;2876;51.738;10.050;2023-01-26T09:56:29;99900.59;;;0.53;93.37
5703;BME280;2876;51.738;10.050;2023-01-26T10:03:07;99899.53;;;0.55;93.70
5703;BME280;2876;51.738;10.050;2023-01-26T10:09:27;99889.56;;;0.70;94.09
5703;BME280;2876;51.738;10.050;2023-01-26T10:15:38;99897.06;;;0.86;93.49
5703;BME280;2876;51.738;10.050;2023-01-26T10:21:45;99887.34;;;0.97;92.64
5703;BME280;2876;51.738;10.050;2023-01-26T10:27:48;99876.22;;;0.71;92.89
5703;BME280;2876;51.738;10.050;2023-01-26T10:34:08;99862.22;;;0.60;94.66
5703;BME280;2876;51.738;10.050;2023-01-26T10:40:12;99855.38;;;0.57;94.71
5703;BME280;2876;51.738;10.050;2023-01-26T10:46:34;99851.81;;;0.47;95.11
5703;BME280;2876;51.738;10.050;2023-01-26T10:52:36;99842.50;;;0.09;97.10
5703;BME280;2876;51.738;10.050;2023-01-26T10:58:54;99838.16;;;0.08;97.27
5703;BME280;2876;51.738;10.050;2023-01-26T11:11:30;99832.59;;;0.56;96.58
5703;BME280;2876;51.738;10.050;2023-01-26T11:17:42;99834.75;;;0.62;95.52
5703;BME280;2876;51.738;10.050;2023-01-26T11:24:08;99820.31;;;0.78;95.81
5703;BME280;2876;51.738;10.050;2023-01-26T11:30:58;99816.72;;;0.79;95.78
5703;BME280;2876;51.738;10.050;2023-01-26T11:56:48;99796.22;;;1.45;94.67
5703;BME280;2876;51.738;10.050;2023-01-26T12:03:02;99786.72;;;1.63;94.06
5703;BME280;2876;51.738;10.050;2023-01-26T12:15:33;99758.59;;;1.83;92.30
5703;BME280;2876;51.738;10.050;2023-01-26T12:21:42;99753.31;;;1.93;91.39
5703;BME280;2876;51.738;10.050;2023-01-26T12:28:17;99756.78;;;1.84;91.17
5703;BME280;2876;51.738;10.050;2023-01-26T12:34:29;99746.28;;;1.42;92.73
5703;BME280;2876;51.738;10.050;2023-01-26T12:41:10;99737.56;;;1.51;92.57
5703;BME280;2876;51.738;10.050;2023-01-26T12:54:33;99731.69;;;1.47;93.53
5703;BME280;2876;51.738;10.050;2023-01-26T13:00:38;99737.78;;;1.69;93.29
5703;BME280;2876;51.738;10.050;2023-01-26T13:06:40;99736.44;;;1.53;92.46
5703;BME280;2876;51.738;10.050;2023-01-26T13:18:56;99721.47;;;1.33;94.09
5703;BME280;2876;51.738;10.050;2023-01-26T13:25:13;99728.56;;;1.33;93.98
5703;BME280;2876;51.738;10.050;2023-01-26T13:31:33;99737.25;;;1.44;94.14
5703;BME280;2876;51.738;10.050;2023-01-26T13:44:40;99746.91;;;1.55;94.06
5703;BME280;2876;51.738;10.050;2023-01-26T13:50:50;99743.88;;;1.60;93.80
5703;BME280;2876;51.738;10.050;2023-01-26T13:57:05;99738.63;;;1.69;93.22
5703;BME280;2876;51.738;10.050;2023-01-26T14:03:21;99733.94;;;1.52;94.47
5703;BME280;2876;51.738;10.050;2023-01-26T14:09:30;99730.38;;;1.63;94.47
5703;BME280;2876;51.738;10.050;2023-01-26T14:15:33;99734.75;;;1.73;94.10
5703;BME280;2876;51.738;10.050;2023-01-26T14:21:59;99729.81;;;1.59;94.68
5703;BME280;2876;51.738;10.050;2023-01-26T14:28:02;99725.03;;;1.53;94.99
5703;BME280;2876;51.738;10.050;2023-01-26T14:34:09;99738.16;;;1.55;95.30
5703;BME280;2876;51.738;10.050;2023-01-26T14:52:35;99742.91;;;1.09;98.00
5703;BME280;2876;51.738;10.050;2023-01-26T14:58:41;99745.00;;;0.94;99.23
5703;BME280;2876;51.738;10.050;2023-01-26T15:04:55;99751.44;;;1.01;99.45
5703;BME280;2876;51.738;10.050;2023-01-26T15:11:02;99759.31;;;0.92;99.76
5703;BME280;2876;51.738;10.050;2023-01-26T15:17:36;99753.47;;;1.09;99.66
5703;BME280;2876;51.738;10.050;2023-01-26T15:23:49;99761.75;;;1.25;99.85
5703;BME280;2876;51.738;10.050;2023-01-26T15:29:57;99761.00;;;1.14;99.45
5703;BME280;2876;51.738;10.050;2023-01-26T15:36:00;99752.88;;;1.06;99.96
5703;BME280;2876;51.738;10.050;2023-01-26T15:42:13;99748.22;;;0.98;100.00
5703;BME280;2876;51.738;10.050;2023-01-26T15:48:16;99747.84;;;1.02;100.00
5703;BME280;2876;51.738;10.050;2023-01-26T15:54:18;99750.28;;;0.94;100.00
5703;BME280;2876;51.738;10.050;2023-01-26T16:00:20;99746.88;;;1.04;100.00
5703;BME280;2876;51.738;10.050;2023-01-26T16:06:29;99750.03;;;1.18;100.00
5703;BME280;2876;51.738;10.050;2023-01-26T16:12:32;99755.22;;;1.09;100.00
5703;BME280;2876;51.738;10.050;2023-01-26T16:18:34;99756.28;;;1.17;100.00
5703;BME280;2876;51.738;10.050;2023-01-26T16:24:36;99762.72;;;1.24;100.00
5703;BME280;2876;51.738;10.050;2023-01-26T16:30:40;99757.06;;;1.29;100.00
5703;BME280;2876;51.738;10.050;2023-01-26T16:36:42;99753.78;;;1.37;100.00
5703;BME280;2876;51.738;10.050;2023-01-26T16:42:48;99758.28;;;1.25;100.00
5703;BME280;2876;51.738;10.050;2023-01-26T16:48:51;99750.25;;;1.36;100.00
5703;BME280;2876;51.738;10.050;2023-01-26T16:54:54;99751.53;;;1.32;100.00
5703;BME280;2876;51.738;10.050;2023-01-26T17:00:56;99753.53;;;1.49;100.00
5703;BME280;2876;51.738;10.050;2023-01-26T17:06:58;99756.31;;;1.48;100.00
5703;BME280;2876;51.738;10.050;2023-01-26T17:13:00;99752.16;;;1.45;100.00
5703;BME280;2876;51.738;10.050;2023-01-26T17:19:02;99763.03;;;1.31;100.00
5703;BME280;2876;51.738;10.050;2023-01-26T17:25:04;99768.22;;;1.33;100.00
5703;BME280;2876;51.738;10.050;2023-01-26T17:31:13;99767.22;;;1.34;100.00
5703;BME280;2876;51.738;10.050;2023-01-26T17:37:20;99757.63;;;1.33;100.00
5703;BME280;2876;51.738;10.050;2023-01-26T17:43:22;99756.53;;;1.35;100.00
5703;BME280;2876;51.738;10.050;2023-01-26T17:49:24;99761.16;;;1.43;100.00
5703;BME280;2876;51.738;10.050;2023-01-26T17:55:26;99764.38;;;1.46;100.00
5703;BME280;2876;51.738;10.050;2023-01-26T18:01:28;99757.44;;;1.45;100.00
5703;BME280;2876;51.738;10.050;2023-01-26T18:07:30;99758.81;;;1.49;99.90
5703;BME280;2876;51.738;10.050;2023-01-26T18:13:32;99755.75;;;1.44;99.91
5703;BME280;2876;51.738;10.050;2023-01-26T18:19:34;99771.94;;;1.51;99.92
5703;BME280;2876;51.738;10.050;2023-01-26T18:25:36;99771.34;;;1.26;100.00
5703;BME280;2876;51.738;10.050;2023-01-26T18:31:38;99772.25;;;1.37;100.00
5703;BME280;2876;51.738;10.050;2023-01-26T18:37:41;99782.84;;;1.37;100.00
5703;BME280;2876;51.738;10.050;2023-01-26T18:43:44;99775.19;;;1.22;100.00
5703;BME280;2876;51.738;10.050;2023-01-26T18:49:47;99770.94;;;1.31;100.00
5703;BME280;2876;51.738;10.050;2023-01-26T18:55:49;99765.03;;;1.39;100.00
5703;BME280;2876;51.738;10.050;2023-01-26T19:01:55;99770.06;;;1.42;100.00
5703;BME280;2876;51.738;10.050;2023-01-26T19:08:00;99772.75;;;1.31;100.00
5703;BME280;2876;51.738;10.050;2023-01-26T19:14:10;99769.44;;;1.29;100.00
5703;BME280;2876;51.738;10.050;2023-01-26T19:20:12;99757.94;;;1.39;100.00
5703;BME280;2876;51.738;10.050;2023-01-26T19:26:18;99769.09;;;1.43;100.00
5703;BME280;2876;51.738;10.050;2023-01-26T19:32:20;99763.09;;;1.41;100.00
5703;BME280;2876;51.738;10.050;2023-01-26T19:38:22;99770.75;;;1.44;100.00
5703;BME280;2876;51.738;10.050;2023-01-26T19:44:24;99766.50;;;1.52;100.00
5703;BME280;2876;51.738;10.050;2023-01-26T19:50:26;99764.97;;;1.50;100.00
5703;BME280;2876;51.738;10.050;2023-01-26T19:56:31;99768.44;;;1.50;100.00
5703;BME280;2876;51.738;10.050;2023-01-26T20:02:33;99782.53;;;1.61;100.00
5703;BME280;2876;51.738;10.050;2023-01-26T20:08:35;99790.22;;;1.64;100.00
5703;BME280;2876;51.738;10.050;2023-01-26T20:14:37;99779.69;;;1.73;100.00
5703;BME280;2876;51.738;10.050;2023-01-26T20:20:39;99782.28;;;1.64;100.00
5703;BME280;2876;51.738;10.050;2023-01-26T20:26:42;99775.44;;;1.61;100.00
5703;BME280;2876;51.738;10.050;2023-01-26T20:32:45;99780.88;;;1.60;100.00
5703;BME280;2876;51.738;10.050;2023-01-26T20:38:48;99779.69;;;1.73;100.00
5703;BME280;2876;51.738;10.050;2023-01-26T20:44:50;99775.06;;;1.66;100.00
5703;BME280;2876;51.738;10.050;2023-01-26T20:50:52;99776.03;;;1.65;100.00
5703;BME280;2876;51.738;10.050;2023-01-26T20:56:54;99775.25;;;1.53;100.00
5703;BME280;2876;51.738;10.050;2023-01-26T21:02:56;99777.56;;;1.67;100.00
5703;BME280;2876;51.738;10.050;2023-01-26T21:08:59;99776.28;;;1.62;100.00
5703;BME280;2876;51.738;10.050;2023-01-26T21:15:05;99773.44;;;1.53;100.00
5703;BME280;2876;51.738;10.050;2023-01-26T21:21:11;99775.78;;;1.47;100.00
5703;BME280;2876;51.738;10.050;2023-01-26T21:27:13;99774.22;;;1.65;100.00
5703;BME280;2876;51.738;10.050;2023-01-26T21:33:15;99788.13;;;1.37;100.00
5703;BME280;2876;51.738;10.050;2023-01-26T21:39:17;99780.88;;;1.60;100.00
5703;BME280;2876;51.738;10.050;2023-01-26T21:45:22;99774.81;;;1.48;100.00
5703;BME280;2876;51.738;10.050;2023-01-26T21:51:43;99776.91;;;1.75;100.00
5703;BME280;2876;51.738;10.050;2023-01-26T21:58:04;99771.44;;;1.67;100.00
5703;BME280;2876;51.738;10.050;2023-01-26T22:04:28;99776.78;;;1.46;100.00
5703;BME280;2876;51.738;10.050;2023-01-26T22:10:30;99776.69;;;1.57;100.00
5703;BME280;2876;51.738;10.050;2023-01-26T22:16:32;99767.81;;;1.68;100.00
5703;BME280;2876;51.738;10.050;2023-01-26T22:22:34;99765.72;;;1.62;100.00
5703;BME280;2876;51.738;10.050;2023-01-26T22:28:36;99775.97;;;1.86;100.00
5703;BME280;2876;51.738;10.050;2023-01-26T22:34:38;99771.31;;;1.68;100.00
5703;BME280;2876;51.738;10.050;2023-01-26T22:40:40;99768.41;;;1.71;100.00
5703;BME280;2876;51.738;10.050;2023-01-26T22:46:42;99770.34;;;1.69;100.00
5703;BME280;2876;51.738;10.050;2023-01-26T22:52:44;99773.28;;;1.76;100.00
5703;BME280;2876;51.738;10.050;2023-01-26T22:58:52;99772.59;;;1.74;100.00
5703;BME280;2876;51.738;10.050;2023-01-26T23:05:00;99767.56;;;1.71;100.00
5703;BME280;2876;51.738;10.050;2023-01-26T23:11:12;99779.44;;;1.86;100.00
5703;BME280;2876;51.738;10.050;2023-01-26T23:17:14;99781.97;;;1.88;100.00
5703;BME280;2876;51.738;10.050;2023-01-26T23:23:16;99772.19;;;1.78;100.00
5703;BME280;2876;51.738;10.050;2023-01-26T23:29:19;99781.66;;;1.81;100.00
5703;BME280;2876;51.738;10.050;2023-01-26T23:35:21;99779.44;;;1.86;100.00
5703;BME280;2876;51.738;10.050;2023-01-26T23:41:27;99779.84;;;1.82;100.00
5703;BME280;2876;51.738;10.050;2023-01-26T23:47:29;99786.78;;;1.73;100.00
5703;BME280;2876;51.738;10.050;2023-01-26T23:53:31;99778.56;;;1.76;100.00
5703;BME280;2876;51.738;10.050;2023-01-26T23:59:33;99773.00;;;1.69;100.00
